sensor_id;sensor_type;location;lat;lon;timestamp;temperature;humidity
59146;DHT22;44928;53.074;6.646;2023-08-12T00:01:23;20.30;99.90
59146;DHT22;44928;53.074;6.646;2023-08-12T00:03:50;20.40;99.90
59146;DHT22;44928;53.074;6.646;2023-08-12T00:06:16;20.30;99.90
59146;DHT22;44928;53.074;6.646;2023-08-12T00:08:42;20.30;99.90
59146;DHT22;44928;53.074;6.646;2023-08-12T00:11:08;20.30;99.90
59146;DHT22;44928;53.074;6.646;2023-08-12T00:13:34;20.30;99.90
59146;DHT22;44928;53.074;6.646;2023-08-12T00:16:00;20.20;99.90
59146;DHT22;44928;53.074;6.646;2023-08-12T00:18:26;20.20;99.90
59146;DHT22;44928;53.074;6.646;2023-08-12T00:20:52;20.20;99.90
59146;DHT22;44928;53.074;6.646;2023-08-12T00:23:18;20.10;99.90
59146;DHT22;44928;53.074;6.646;2023-08-12T00:25:44;20.10;99.90
59146;DHT22;44928;53.074;6.646;2023-08-12T00:28:09;20.10;99.90
59146;DHT22;44928;53.074;6.646;2023-08-12T00:30:35;20.10;99.90
59146;DHT22;44928;53.074;6.646;2023-08-12T00:33:01;20.00;99.90
59146;DHT22;44928;53.074;6.646;2023-08-12T00:35:27;20.00;99.90
59146;DHT22;44928;53.074;6.646;2023-08-12T00:37:53;20.00;99.90
59146;DHT22;44928;53.074;6.646;2023-08-12T00:40:19;20.00;99.90
59146;DHT22;44928;53.074;6.646;2023-08-12T00:42:45;20.00;99.90
59146;DHT22;44928;53.074;6.646;2023-08-12T00:45:14;20.00;99.90
59146;DHT22;44928;53.074;6.646;2023-08-12T00:47:40;19.90;99.90
59146;DHT22;44928;53.074;6.646;2023-08-12T00:50:09;19.90;99.90
59146;DHT22;44928;53.074;6.646;2023-08-12T00:52:37;19.90;99.90
59146;DHT22;44928;53.074;6.646;2023-08-12T00:55:03;19.90;99.90
59146;DHT22;44928;53.074;6.646;2023-08-12T00:57:29;19.90;99.90
59146;DHT22;44928;53.074;6.646;2023-08-12T00:59:56;19.90;99.90
59146;DHT22;44928;53.074;6.646;2023-08-12T01:02:21;19.90;99.90
59146;DHT22;44928;53.074;6.646;2023-08-12T01:04:47;19.90;99.90
59146;DHT22;44928;53.074;6.646;2023-08-12T01:07:13;19.90;99.90
59146;DHT22;44928;53.074;6.646;2023-08-12T01:09:39;19.90;99.90
59146;DHT22;44928;53.074;6.646;2023-08-12T01:15:04;19.90;99.90
59146;DHT22;44928;53.074;6.646;2023-08-12T01:17:34;19.90;99.90
59146;DHT22;44928;53.074;6.646;2023-08-12T01:20:02;19.80;99.90
59146;DHT22;44928;53.074;6.646;2023-08-12T01:22:37;19.80;99.90
59146;DHT22;44928;53.074;6.646;2023-08-12T01:25:05;19.80;99.90
59146;DHT22;44928;53.074;6.646;2023-08-12T01:27:31;19.80;99.90
59146;DHT22;44928;53.074;6.646;2023-08-12T01:29:57;19.80;99.90
59146;DHT22;44928;53.074;6.646;2023-08-12T01:32:43;19.80;99.90
59146;DHT22;44928;53.074;6.646;2023-08-12T01:35:41;19.80;99.90
59146;DHT22;44928;53.074;6.646;2023-08-12T01:38:09;19.80;99.90
59146;DHT22;44928;53.074;6.646;2023-08-12T01:40:38;19.70;99.90
59146;DHT22;44928;53.074;6.646;2023-08-12T01:43:04;19.70;99.90
59146;DHT22;44928;53.074;6.646;2023-08-12T01:45:33;19.70;99.90
59146;DHT22;44928;53.074;6.646;2023-08-12T01:47:59;19.70;99.90
59146;DHT22;44928;53.074;6.646;2023-08-12T01:50:25;19.70;99.90
59146;DHT22;44928;53.074;6.646;2023-08-12T01:52:51;19.70;99.90
59146;DHT22;44928;53.074;6.646;2023-08-12T01:55:17;19.70;99.90
59146;DHT22;44928;53.074;6.646;2023-08-12T01:57:43;19.60;99.90
59146;DHT22;44928;53.074;6.646;2023-08-12T02:00:09;19.60;99.90
59146;DHT22;44928;53.074;6.646;2023-08-12T02:02:35;19.60;99.90
59146;DHT22;44928;53.074;6.646;2023-08-12T02:05:01;19.60;99.90
59146;DHT22;44928;53.074;6.646;2023-08-12T02:07:27;19.60;99.90
59146;DHT22;44928;53.074;6.646;2023-08-12T02:09:52;19.60;99.90
59146;DHT22;44928;53.074;6.646;2023-08-12T02:12:18;19.50;99.90
59146;DHT22;44928;53.074;6.646;2023-08-12T02:14:44;19.50;99.90
59146;DHT22;44928;53.074;6.646;2023-08-12T02:17:10;19.50;99.90
59146;DHT22;44928;53.074;6.646;2023-08-12T02:19:36;19.50;99.90
59146;DHT22;44928;53.074;6.646;2023-08-12T02:22:02;19.40;99.90
59146;DHT22;44928;53.074;6.646;2023-08-12T02:24:29;19.40;99.90
59146;DHT22;44928;53.074;6.646;2023-08-12T02:26:55;19.40;99.90
59146;DHT22;44928;53.074;6.646;2023-08-12T02:29:21;19.40;99.90
59146;DHT22;44928;53.074;6.646;2023-08-12T02:31:47;19.40;99.90
59146;DHT22;44928;53.074;6.646;2023-08-12T02:34:13;19.40;99.90
59146;DHT22;44928;53.074;6.646;2023-08-12T02:36:39;19.40;99.90
59146;DHT22;44928;53.074;6.646;2023-08-12T02:39:04;19.40;99.90
59146;DHT22;44928;53.074;6.646;2023-08-12T02:41:31;19.40;99.90
59146;DHT22;44928;53.074;6.646;2023-08-12T02:43:56;19.40;99.90
59146;DHT22;44928;53.074;6.646;2023-08-12T02:46:22;19.40;99.90
59146;DHT22;44928;53.074;6.646;2023-08-12T02:48:50;19.40;99.90
59146;DHT22;44928;53.074;6.646;2023-08-12T02:51:16;19.40;99.90
59146;DHT22;44928;53.074;6.646;2023-08-12T02:53:42;19.40;99.90
59146;DHT22;44928;53.074;6.646;2023-08-12T02:56:08;19.40;99.90
59146;DHT22;44928;53.074;6.646;2023-08-12T02:58:33;19.40;99.90
59146;DHT22;44928;53.074;6.646;2023-08-12T03:01:00;19.40;99.90
59146;DHT22;44928;53.074;6.646;2023-08-12T03:03:25;19.40;99.90
59146;DHT22;44928;53.074;6.646;2023-08-12T03:05:51;19.40;99.90
59146;DHT22;44928;53.074;6.646;2023-08-12T03:08:17;19.40;99.90
59146;DHT22;44928;53.074;6.646;2023-08-12T03:10:44;19.40;99.90
59146;DHT22;44928;53.074;6.646;2023-08-12T03:13:10;19.40;99.90
59146;DHT22;44928;53.074;6.646;2023-08-12T03:15:39;19.40;99.90
59146;DHT22;44928;53.074;6.646;2023-08-12T03:18:05;19.40;99.90
59146;DHT22;44928;53.074;6.646;2023-08-12T03:20:31;19.40;99.90
59146;DHT22;44928;53.074;6.646;2023-08-12T03:22:57;19.40;99.90
59146;DHT22;44928;53.074;6.646;2023-08-12T03:25:23;19.40;99.90
59146;DHT22;44928;53.074;6.646;2023-08-12T03:27:48;19.30;99.90
59146;DHT22;44928;53.074;6.646;2023-08-12T03:30:14;19.30;99.90
59146;DHT22;44928;53.074;6.646;2023-08-12T03:32:40;19.30;99.90
59146;DHT22;44928;53.074;6.646;2023-08-12T03:35:06;19.30;99.90
59146;DHT22;44928;53.074;6.646;2023-08-12T03:37:32;19.30;99.90
59146;DHT22;44928;53.074;6.646;2023-08-12T03:39:58;19.30;99.90
59146;DHT22;44928;53.074;6.646;2023-08-12T03:42:23;19.30;99.90
59146;DHT22;44928;53.074;6.646;2023-08-12T03:44:49;19.30;99.90
59146;DHT22;44928;53.074;6.646;2023-08-12T03:47:15;19.30;99.90
59146;DHT22;44928;53.074;6.646;2023-08-12T03:49:41;19.30;99.90
59146;DHT22;44928;53.074;6.646;2023-08-12T03:52:07;19.30;99.90
59146;DHT22;44928;53.074;6.646;2023-08-12T03:54:33;19.30;99.90
59146;DHT22;44928;53.074;6.646;2023-08-12T03:57:00;19.20;99.90
59146;DHT22;44928;53.074;6.646;2023-08-12T03:59:26;19.20;99.90
59146;DHT22;44928;53.074;6.646;2023-08-12T04:01:51;19.20;99.90
59146;DHT22;44928;53.074;6.646;2023-08-12T04:04:17;19.20;99.90
59146;DHT22;44928;53.074;6.646;2023-08-12T04:06:43;19.20;99.90
59146;DHT22;44928;53.074;6.646;2023-08-12T04:09:09;19.30;99.90
59146;DHT22;44928;53.074;6.646;2023-08-12T04:11:35;19.20;99.90
59146;DHT22;44928;53.074;6.646;2023-08-12T04:14:00;19.20;99.90
59146;DHT22;44928;53.074;6.646;2023-08-12T04:16:26;19.20;99.90
59146;DHT22;44928;53.074;6.646;2023-08-12T04:18:52;19.20;99.90
59146;DHT22;44928;53.074;6.646;2023-08-12T04:21:18;19.20;99.90
59146;DHT22;44928;53.074;6.646;2023-08-12T04:23:44;19.20;99.90
59146;DHT22;44928;53.074;6.646;2023-08-12T04:26:09;19.20;99.90
59146;DHT22;44928;53.074;6.646;2023-08-12T04:28:35;19.20;99.90
59146;DHT22;44928;53.074;6.646;2023-08-12T04:31:07;19.20;99.90
59146;DHT22;44928;53.074;6.646;2023-08-12T04:33:40;19.20;99.90
59146;DHT22;44928;53.074;6.646;2023-08-12T04:36:28;19.20;99.90
59146;DHT22;44928;53.074;6.646;2023-08-12T04:39:02;19.20;99.90
59146;DHT22;44928;53.074;6.646;2023-08-12T04:41:32;19.20;99.90
59146;DHT22;44928;53.074;6.646;2023-08-12T04:44:03;19.20;99.90
59146;DHT22;44928;53.074;6.646;2023-08-12T04:46:29;19.30;99.90
59146;DHT22;44928;53.074;6.646;2023-08-12T04:48:55;19.30;99.90
59146;DHT22;44928;53.074;6.646;2023-08-12T04:51:21;19.30;99.90
59146;DHT22;44928;53.074;6.646;2023-08-12T04:53:47;19.30;99.90
59146;DHT22;44928;53.074;6.646;2023-08-12T04:56:13;19.30;99.90
59146;DHT22;44928;53.074;6.646;2023-08-12T04:58:39;19.30;99.90
59146;DHT22;44928;53.074;6.646;2023-08-12T05:01:05;19.30;99.90
59146;DHT22;44928;53.074;6.646;2023-08-12T05:03:30;19.30;99.90
59146;DHT22;44928;53.074;6.646;2023-08-12T05:05:56;19.30;99.90
59146;DHT22;44928;53.074;6.646;2023-08-12T05:08:22;19.40;99.90
59146;DHT22;44928;53.074;6.646;2023-08-12T05:10:48;19.30;99.90
59146;DHT22;44928;53.074;6.646;2023-08-12T05:13:17;19.30;99.90
59146;DHT22;44928;53.074;6.646;2023-08-12T05:15:46;19.40;99.90
59146;DHT22;44928;53.074;6.646;2023-08-12T05:18:13;19.40;99.90
59146;DHT22;44928;53.074;6.646;2023-08-12T05:20:40;19.40;99.90
59146;DHT22;44928;53.074;6.646;2023-08-12T05:23:07;19.40;99.90
59146;DHT22;44928;53.074;6.646;2023-08-12T05:25:32;19.50;99.90
59146;DHT22;44928;53.074;6.646;2023-08-12T05:27:58;19.40;99.90
59146;DHT22;44928;53.074;6.646;2023-08-12T05:30:24;19.50;99.90
59146;DHT22;44928;53.074;6.646;2023-08-12T05:32:50;19.50;99.90
59146;DHT22;44928;53.074;6.646;2023-08-12T05:35:16;19.50;99.90
59146;DHT22;44928;53.074;6.646;2023-08-12T05:37:42;19.50;99.90
59146;DHT22;44928;53.074;6.646;2023-08-12T05:40:11;19.50;99.90
59146;DHT22;44928;53.074;6.646;2023-08-12T05:42:37;19.60;99.90
59146;DHT22;44928;53.074;6.646;2023-08-12T05:45:03;19.60;99.90
59146;DHT22;44928;53.074;6.646;2023-08-12T05:47:29;19.60;99.90
59146;DHT22;44928;53.074;6.646;2023-08-12T05:49:55;19.60;99.90
59146;DHT22;44928;53.074;6.646;2023-08-12T05:52:21;19.70;99.90
59146;DHT22;44928;53.074;6.646;2023-08-12T05:54:47;19.70;99.90
59146;DHT22;44928;53.074;6.646;2023-08-12T05:57:13;19.70;99.90
59146;DHT22;44928;53.074;6.646;2023-08-12T05:59:38;19.70;99.90
59146;DHT22;44928;53.074;6.646;2023-08-12T06:02:04;19.80;99.90
59146;DHT22;44928;53.074;6.646;2023-08-12T06:04:30;19.80;99.90
59146;DHT22;44928;53.074;6.646;2023-08-12T06:06:56;19.80;99.90
59146;DHT22;44928;53.074;6.646;2023-08-12T06:09:22;19.90;99.90
59146;DHT22;44928;53.074;6.646;2023-08-12T06:11:48;19.90;99.90
59146;DHT22;44928;53.074;6.646;2023-08-12T06:14:13;19.90;99.90
59146;DHT22;44928;53.074;6.646;2023-08-12T06:16:39;20.00;99.90
59146;DHT22;44928;53.074;6.646;2023-08-12T06:19:05;20.00;99.90
59146;DHT22;44928;53.074;6.646;2023-08-12T06:21:31;20.00;99.90
59146;DHT22;44928;53.074;6.646;2023-08-12T06:23:57;20.10;99.90
59146;DHT22;44928;53.074;6.646;2023-08-12T06:26:22;20.10;99.90
59146;DHT22;44928;53.074;6.646;2023-08-12T06:28:48;20.10;99.90
59146;DHT22;44928;53.074;6.646;2023-08-12T06:31:14;20.10;99.90
59146;DHT22;44928;53.074;6.646;2023-08-12T06:33:40;20.10;99.90
59146;DHT22;44928;53.074;6.646;2023-08-12T06:36:06;20.20;99.90
59146;DHT22;44928;53.074;6.646;2023-08-12T06:38:32;20.20;99.90
59146;DHT22;44928;53.074;6.646;2023-08-12T06:40:58;20.20;99.90
59146;DHT22;44928;53.074;6.646;2023-08-12T06:43:23;20.20;99.90
59146;DHT22;44928;53.074;6.646;2023-08-12T06:45:49;20.20;99.90
59146;DHT22;44928;53.074;6.646;2023-08-12T06:48:15;20.30;99.90
59146;DHT22;44928;53.074;6.646;2023-08-12T06:50:41;20.30;99.90
59146;DHT22;44928;53.074;6.646;2023-08-12T06:53:06;20.30;99.90
59146;DHT22;44928;53.074;6.646;2023-08-12T06:55:32;20.40;99.90
59146;DHT22;44928;53.074;6.646;2023-08-12T06:58:00;20.40;99.90
59146;DHT22;44928;53.074;6.646;2023-08-12T07:00:26;20.40;99.90
59146;DHT22;44928;53.074;6.646;2023-08-12T07:02:52;20.40;99.90
59146;DHT22;44928;53.074;6.646;2023-08-12T07:05:18;20.50;99.90
59146;DHT22;44928;53.074;6.646;2023-08-12T07:07:44;20.50;99.90
59146;DHT22;44928;53.074;6.646;2023-08-12T07:10:10;20.50;99.90
59146;DHT22;44928;53.074;6.646;2023-08-12T07:12:36;20.50;99.90
59146;DHT22;44928;53.074;6.646;2023-08-12T07:15:02;20.50;99.90
59146;DHT22;44928;53.074;6.646;2023-08-12T07:17:28;20.50;99.90
59146;DHT22;44928;53.074;6.646;2023-08-12T07:19:53;20.50;99.90
59146;DHT22;44928;53.074;6.646;2023-08-12T07:22:19;20.60;99.90
59146;DHT22;44928;53.074;6.646;2023-08-12T07:24:46;20.60;99.90
59146;DHT22;44928;53.074;6.646;2023-08-12T07:27:11;20.60;99.90
59146;DHT22;44928;53.074;6.646;2023-08-12T07:29:37;20.60;99.90
59146;DHT22;44928;53.074;6.646;2023-08-12T07:32:03;20.60;99.90
59146;DHT22;44928;53.074;6.646;2023-08-12T07:34:29;20.60;99.90
59146;DHT22;44928;53.074;6.646;2023-08-12T07:36:55;20.60;99.90
59146;DHT22;44928;53.074;6.646;2023-08-12T07:39:21;20.60;99.90
59146;DHT22;44928;53.074;6.646;2023-08-12T07:41:47;20.60;99.90
59146;DHT22;44928;53.074;6.646;2023-08-12T07:44:12;20.60;99.90
59146;DHT22;44928;53.074;6.646;2023-08-12T07:46:38;20.70;99.90
59146;DHT22;44928;53.074;6.646;2023-08-12T07:49:04;20.70;99.90
59146;DHT22;44928;53.074;6.646;2023-08-12T07:51:30;20.70;99.90
59146;DHT22;44928;53.074;6.646;2023-08-12T07:53:56;20.70;99.90
59146;DHT22;44928;53.074;6.646;2023-08-12T07:56:21;20.70;99.90
59146;DHT22;44928;53.074;6.646;2023-08-12T07:58:47;20.70;99.90
59146;DHT22;44928;53.074;6.646;2023-08-12T08:01:13;20.70;99.90
59146;DHT22;44928;53.074;6.646;2023-08-12T08:03:39;20.80;99.90
59146;DHT22;44928;53.074;6.646;2023-08-12T08:06:05;20.80;99.90
59146;DHT22;44928;53.074;6.646;2023-08-12T08:08:31;20.80;99.90
59146;DHT22;44928;53.074;6.646;2023-08-12T08:10:57;20.80;99.90
59146;DHT22;44928;53.074;6.646;2023-08-12T08:13:22;20.80;99.90
59146;DHT22;44928;53.074;6.646;2023-08-12T08:15:48;20.80;99.90
59146;DHT22;44928;53.074;6.646;2023-08-12T08:18:14;20.90;99.90
59146;DHT22;44928;53.074;6.646;2023-08-12T08:20:42;20.90;99.90
59146;DHT22;44928;53.074;6.646;2023-08-12T08:23:08;20.90;99.90
59146;DHT22;44928;53.074;6.646;2023-08-12T08:25:33;20.90;99.90
59146;DHT22;44928;53.074;6.646;2023-08-12T08:27:59;21.00;99.90
59146;DHT22;44928;53.074;6.646;2023-08-12T08:30:25;21.00;99.90
59146;DHT22;44928;53.074;6.646;2023-08-12T08:32:52;21.00;99.90
59146;DHT22;44928;53.074;6.646;2023-08-12T08:35:18;21.00;99.90
59146;DHT22;44928;53.074;6.646;2023-08-12T08:37:44;21.00;99.90
59146;DHT22;44928;53.074;6.646;2023-08-12T08:40:10;21.00;99.90
59146;DHT22;44928;53.074;6.646;2023-08-12T08:42:37;21.00;99.90
59146;DHT22;44928;53.074;6.646;2023-08-12T08:45:08;21.00;99.90
59146;DHT22;44928;53.074;6.646;2023-08-12T08:47:37;21.00;99.90
59146;DHT22;44928;53.074;6.646;2023-08-12T08:50:03;21.00;99.90
59146;DHT22;44928;53.074;6.646;2023-08-12T08:52:29;21.00;99.90
59146;DHT22;44928;53.074;6.646;2023-08-12T08:54:57;21.00;99.90
59146;DHT22;44928;53.074;6.646;2023-08-12T08:57:23;21.00;99.90
59146;DHT22;44928;53.074;6.646;2023-08-12T08:59:49;21.00;99.90
59146;DHT22;44928;53.074;6.646;2023-08-12T09:02:17;21.00;99.90
59146;DHT22;44928;53.074;6.646;2023-08-12T09:04:44;21.00;99.90
59146;DHT22;44928;53.074;6.646;2023-08-12T09:07:11;21.00;99.90
59146;DHT22;44928;53.074;6.646;2023-08-12T09:09:40;21.00;99.90
59146;DHT22;44928;53.074;6.646;2023-08-12T09:12:08;21.00;99.90
59146;DHT22;44928;53.074;6.646;2023-08-12T09:14:35;21.00;99.90
59146;DHT22;44928;53.074;6.646;2023-08-12T09:17:02;21.00;99.90
59146;DHT22;44928;53.074;6.646;2023-08-12T09:19:28;20.90;99.90
59146;DHT22;44928;53.074;6.646;2023-08-12T09:21:54;20.90;99.90
59146;DHT22;44928;53.074;6.646;2023-08-12T09:24:26;20.90;99.90
59146;DHT22;44928;53.074;6.646;2023-08-12T09:26:53;20.90;99.90
59146;DHT22;44928;53.074;6.646;2023-08-12T09:29:34;20.90;99.90
59146;DHT22;44928;53.074;6.646;2023-08-12T09:32:11;20.80;99.90
59146;DHT22;44928;53.074;6.646;2023-08-12T09:34:55;20.80;99.90
59146;DHT22;44928;53.074;6.646;2023-08-12T09:37:30;20.80;99.90
59146;DHT22;44928;53.074;6.646;2023-08-12T09:39:56;20.70;99.90
59146;DHT22;44928;53.074;6.646;2023-08-12T09:42:23;20.80;99.90
59146;DHT22;44928;53.074;6.646;2023-08-12T09:44:49;20.70;99.90
59146;DHT22;44928;53.074;6.646;2023-08-12T09:47:15;20.80;99.90
59146;DHT22;44928;53.074;6.646;2023-08-12T09:49:41;20.80;99.90
59146;DHT22;44928;53.074;6.646;2023-08-12T09:52:08;20.80;99.90
59146;DHT22;44928;53.074;6.646;2023-08-12T09:54:34;20.80;99.90
59146;DHT22;44928;53.074;6.646;2023-08-12T09:57:02;20.80;99.90
59146;DHT22;44928;53.074;6.646;2023-08-12T09:59:32;20.80;99.90
59146;DHT22;44928;53.074;6.646;2023-08-12T10:02:00;20.80;99.90
59146;DHT22;44928;53.074;6.646;2023-08-12T10:04:39;20.80;99.90
59146;DHT22;44928;53.074;6.646;2023-08-12T10:07:08;20.80;99.90
59146;DHT22;44928;53.074;6.646;2023-08-12T10:09:36;20.70;99.90
59146;DHT22;44928;53.074;6.646;2023-08-12T10:12:03;20.70;99.90
59146;DHT22;44928;53.074;6.646;2023-08-12T10:14:29;20.70;99.90
59146;DHT22;44928;53.074;6.646;2023-08-12T10:16:55;20.70;99.90
59146;DHT22;44928;53.074;6.646;2023-08-12T10:19:22;20.60;99.90
59146;DHT22;44928;53.074;6.646;2023-08-12T10:21:55;20.60;99.90
59146;DHT22;44928;53.074;6.646;2023-08-12T10:24:23;20.60;99.90
59146;DHT22;44928;53.074;6.646;2023-08-12T10:26:51;20.60;99.90
59146;DHT22;44928;53.074;6.646;2023-08-12T10:29:19;20.50;99.90
59146;DHT22;44928;53.074;6.646;2023-08-12T10:31:48;20.50;99.90
59146;DHT22;44928;53.074;6.646;2023-08-12T10:34:20;20.60;99.90
59146;DHT22;44928;53.074;6.646;2023-08-12T10:36:47;20.60;99.90
59146;DHT22;44928;53.074;6.646;2023-08-12T10:39:13;20.50;99.90
59146;DHT22;44928;53.074;6.646;2023-08-12T10:41:39;20.50;99.90
59146;DHT22;44928;53.074;6.646;2023-08-12T10:44:15;20.50;99.90
59146;DHT22;44928;53.074;6.646;2023-08-12T10:46:50;20.50;99.90
59146;DHT22;44928;53.074;6.646;2023-08-12T10:49:18;20.50;99.90
59146;DHT22;44928;53.074;6.646;2023-08-12T10:51:54;20.50;99.90
59146;DHT22;44928;53.074;6.646;2023-08-12T10:57:04;20.50;99.90
59146;DHT22;44928;53.074;6.646;2023-08-12T11:05:04;20.40;99.90
59146;DHT22;44928;53.074;6.646;2023-08-12T11:07:45;20.40;99.90
59146;DHT22;44928;53.074;6.646;2023-08-12T11:10:15;20.30;99.90
59146;DHT22;44928;53.074;6.646;2023-08-12T11:12:53;20.40;99.90
59146;DHT22;44928;53.074;6.646;2023-08-12T11:15:40;20.30;99.90
59146;DHT22;44928;53.074;6.646;2023-08-12T11:18:13;20.40;99.90
59146;DHT22;44928;53.074;6.646;2023-08-12T11:20:40;20.30;99.90
59146;DHT22;44928;53.074;6.646;2023-08-12T11:23:07;20.40;99.90
59146;DHT22;44928;53.074;6.646;2023-08-12T11:25:35;20.40;99.90
59146;DHT22;44928;53.074;6.646;2023-08-12T11:28:01;20.40;99.90
59146;DHT22;44928;53.074;6.646;2023-08-12T11:30:28;20.40;99.90
59146;DHT22;44928;53.074;6.646;2023-08-12T11:32:54;20.40;99.90
59146;DHT22;44928;53.074;6.646;2023-08-12T11:35:22;20.40;99.90
59146;DHT22;44928;53.074;6.646;2023-08-12T11:37:51;20.40;99.90
59146;DHT22;44928;53.074;6.646;2023-08-12T11:40:19;20.40;99.90
59146;DHT22;44928;53.074;6.646;2023-08-12T11:42:47;20.30;99.90
59146;DHT22;44928;53.074;6.646;2023-08-12T11:45:15;20.30;99.90
59146;DHT22;44928;53.074;6.646;2023-08-12T11:47:41;20.30;99.90
59146;DHT22;44928;53.074;6.646;2023-08-12T11:50:10;20.30;99.90
59146;DHT22;44928;53.074;6.646;2023-08-12T11:52:37;20.30;99.90
59146;DHT22;44928;53.074;6.646;2023-08-12T11:55:05;20.30;99.90
59146;DHT22;44928;53.074;6.646;2023-08-12T11:57:30;20.30;99.90
59146;DHT22;44928;53.074;6.646;2023-08-12T12:00:07;20.40;99.90
59146;DHT22;44928;53.074;6.646;2023-08-12T12:02:50;20.40;99.90
59146;DHT22;44928;53.074;6.646;2023-08-12T12:05:17;20.40;99.90
59146;DHT22;44928;53.074;6.646;2023-08-12T12:07:44;20.40;99.90
59146;DHT22;44928;53.074;6.646;2023-08-12T12:10:17;20.40;99.90
59146;DHT22;44928;53.074;6.646;2023-08-12T12:12:44;20.40;99.90
59146;DHT22;44928;53.074;6.646;2023-08-12T12:15:13;20.30;99.90
59146;DHT22;44928;53.074;6.646;2023-08-12T12:17:44;20.10;99.90
59146;DHT22;44928;53.074;6.646;2023-08-12T12:20:11;19.90;99.90
59146;DHT22;44928;53.074;6.646;2023-08-12T12:22:37;19.70;99.90
59146;DHT22;44928;53.074;6.646;2023-08-12T12:25:08;19.50;99.90
59146;DHT22;44928;53.074;6.646;2023-08-12T12:27:35;19.30;99.90
59146;DHT22;44928;53.074;6.646;2023-08-12T12:30:02;19.20;99.90
59146;DHT22;44928;53.074;6.646;2023-08-12T12:32:29;19.10;99.90
59146;DHT22;44928;53.074;6.646;2023-08-12T12:34:54;19.00;99.90
59146;DHT22;44928;53.074;6.646;2023-08-12T12:37:20;19.10;99.90
59146;DHT22;44928;53.074;6.646;2023-08-12T12:39:46;19.10;99.90
59146;DHT22;44928;53.074;6.646;2023-08-12T12:42:12;19.10;99.90
59146;DHT22;44928;53.074;6.646;2023-08-12T12:44:38;19.10;99.90
59146;DHT22;44928;53.074;6.646;2023-08-12T12:47:04;19.20;99.90
59146;DHT22;44928;53.074;6.646;2023-08-12T12:49:30;19.20;99.90
59146;DHT22;44928;53.074;6.646;2023-08-12T12:51:56;19.30;99.90
59146;DHT22;44928;53.074;6.646;2023-08-12T12:54:22;19.30;99.90
59146;DHT22;44928;53.074;6.646;2023-08-12T12:56:48;19.40;99.90
59146;DHT22;44928;53.074;6.646;2023-08-12T12:59:14;19.40;99.90
59146;DHT22;44928;53.074;6.646;2023-08-12T13:01:43;19.50;99.90
59146;DHT22;44928;53.074;6.646;2023-08-12T13:04:09;19.50;99.90
59146;DHT22;44928;53.074;6.646;2023-08-12T13:06:35;19.60;99.90
59146;DHT22;44928;53.074;6.646;2023-08-12T13:09:01;19.50;99.90
59146;DHT22;44928;53.074;6.646;2023-08-12T13:11:28;19.50;99.90
59146;DHT22;44928;53.074;6.646;2023-08-12T13:13:55;19.60;99.90
59146;DHT22;44928;53.074;6.646;2023-08-12T13:16:20;19.60;99.90
59146;DHT22;44928;53.074;6.646;2023-08-12T13:18:46;19.70;99.90
59146;DHT22;44928;53.074;6.646;2023-08-12T13:21:12;19.70;99.90
59146;DHT22;44928;53.074;6.646;2023-08-12T13:23:38;19.70;99.90
59146;DHT22;44928;53.074;6.646;2023-08-12T13:26:04;19.80;99.90
59146;DHT22;44928;53.074;6.646;2023-08-12T13:28:30;19.80;99.90
59146;DHT22;44928;53.074;6.646;2023-08-12T13:30:56;19.90;99.90
59146;DHT22;44928;53.074;6.646;2023-08-12T13:33:22;20.00;99.90
59146;DHT22;44928;53.074;6.646;2023-08-12T13:35:48;20.10;99.90
59146;DHT22;44928;53.074;6.646;2023-08-12T13:38:14;20.10;99.90
59146;DHT22;44928;53.074;6.646;2023-08-12T13:40:39;20.20;99.90
59146;DHT22;44928;53.074;6.646;2023-08-12T13:43:05;20.30;99.90
59146;DHT22;44928;53.074;6.646;2023-08-12T13:45:31;20.40;99.90
59146;DHT22;44928;53.074;6.646;2023-08-12T13:47:57;20.40;99.90
59146;DHT22;44928;53.074;6.646;2023-08-12T13:50:23;20.50;99.90
59146;DHT22;44928;53.074;6.646;2023-08-12T13:52:48;20.60;99.90
59146;DHT22;44928;53.074;6.646;2023-08-12T13:55:16;20.70;99.90
59146;DHT22;44928;53.074;6.646;2023-08-12T13:57:42;20.80;99.90
59146;DHT22;44928;53.074;6.646;2023-08-12T14:00:08;20.80;99.90
59146;DHT22;44928;53.074;6.646;2023-08-12T14:02:39;20.90;99.90
59146;DHT22;44928;53.074;6.646;2023-08-12T14:05:05;21.00;99.90
59146;DHT22;44928;53.074;6.646;2023-08-12T14:07:31;21.10;99.90
59146;DHT22;44928;53.074;6.646;2023-08-12T14:10:00;21.20;99.90
59146;DHT22;44928;53.074;6.646;2023-08-12T14:12:26;21.30;99.90
59146;DHT22;44928;53.074;6.646;2023-08-12T14:14:52;21.30;99.90
59146;DHT22;44928;53.074;6.646;2023-08-12T14:17:18;21.40;99.90
59146;DHT22;44928;53.074;6.646;2023-08-12T14:19:49;21.40;99.90
59146;DHT22;44928;53.074;6.646;2023-08-12T14:22:16;21.40;99.90
59146;DHT22;44928;53.074;6.646;2023-08-12T14:24:42;21.50;99.90
59146;DHT22;44928;53.074;6.646;2023-08-12T14:27:10;21.50;99.90
59146;DHT22;44928;53.074;6.646;2023-08-12T14:29:36;21.50;99.90
59146;DHT22;44928;53.074;6.646;2023-08-12T14:32:01;21.60;99.90
59146;DHT22;44928;53.074;6.646;2023-08-12T14:34:27;21.60;99.90
59146;DHT22;44928;53.074;6.646;2023-08-12T14:36:53;21.70;99.90
59146;DHT22;44928;53.074;6.646;2023-08-12T14:39:19;21.80;99.90
59146;DHT22;44928;53.074;6.646;2023-08-12T14:41:45;21.90;99.90
59146;DHT22;44928;53.074;6.646;2023-08-12T14:44:12;21.90;99.90
59146;DHT22;44928;53.074;6.646;2023-08-12T14:46:37;22.00;99.90
59146;DHT22;44928;53.074;6.646;2023-08-12T14:49:03;22.10;99.90
59146;DHT22;44928;53.074;6.646;2023-08-12T14:51:29;22.20;99.90
59146;DHT22;44928;53.074;6.646;2023-08-12T14:53:55;22.20;99.90
59146;DHT22;44928;53.074;6.646;2023-08-12T14:56:22;22.20;99.90
59146;DHT22;44928;53.074;6.646;2023-08-12T14:58:47;22.20;99.90
59146;DHT22;44928;53.074;6.646;2023-08-12T15:01:13;22.20;99.90
59146;DHT22;44928;53.074;6.646;2023-08-12T15:03:39;22.20;99.90
59146;DHT22;44928;53.074;6.646;2023-08-12T15:06:05;22.30;99.90
59146;DHT22;44928;53.074;6.646;2023-08-12T15:08:31;22.20;99.90
59146;DHT22;44928;53.074;6.646;2023-08-12T15:10:58;22.10;99.90
59146;DHT22;44928;53.074;6.646;2023-08-12T15:13:24;22.10;99.90
59146;DHT22;44928;53.074;6.646;2023-08-12T15:15:50;22.00;99.90
59146;DHT22;44928;53.074;6.646;2023-08-12T15:18:17;21.90;99.90
59146;DHT22;44928;53.074;6.646;2023-08-12T15:20:43;21.80;99.90
59146;DHT22;44928;53.074;6.646;2023-08-12T15:23:09;21.70;99.90
59146;DHT22;44928;53.074;6.646;2023-08-12T15:25:37;21.70;99.90
59146;DHT22;44928;53.074;6.646;2023-08-12T15:28:06;21.70;99.90
59146;DHT22;44928;53.074;6.646;2023-08-12T15:30:32;21.70;99.90
59146;DHT22;44928;53.074;6.646;2023-08-12T15:32:58;21.70;99.90
59146;DHT22;44928;53.074;6.646;2023-08-12T15:35:24;21.70;99.90
59146;DHT22;44928;53.074;6.646;2023-08-12T15:37:50;21.60;99.90
59146;DHT22;44928;53.074;6.646;2023-08-12T15:40:16;21.60;99.90